createdAt,value
2017-12-21T00:00:21.707Z,87.50
2017-12-21T00:02:49.294Z,86.90
2017-12-21T00:05:16.900Z,87.40
2017-12-21T00:07:44.495Z,87.80
2017-12-21T00:10:12.080Z,88.00
2017-12-21T00:12:40.145Z,87.90
2017-12-21T00:15:07.738Z,87.50
2017-12-21T00:17:35.362Z,87.90
2017-12-21T00:20:02.960Z,87.90
2017-12-21T00:22:43.385Z,89.40
2017-12-21T00:25:11.226Z,88.70
2017-12-21T00:27:38.854Z,88.70
2017-12-21T00:30:06.425Z,88.50
2017-12-21T00:32:34.781Z,88.80
2017-12-21T00:35:02.399Z,88.90
2017-12-21T00:37:30.008Z,89.30
2017-12-21T00:39:57.589Z,88.70
2017-12-21T00:42:25.955Z,88.70
2017-12-21T00:44:53.575Z,88.80
2017-12-21T00:47:21.172Z,88.20
2017-12-21T00:49:49.363Z,87.70
2017-12-21T00:52:16.962Z,87.40
2017-12-21T00:54:44.614Z,87.40
2017-12-21T00:57:12.227Z,87.30
2017-12-21T00:59:39.815Z,87.50
2017-12-21T01:02:08.073Z,87.30
2017-12-21T01:04:35.702Z,87.40
2017-12-21T01:07:03.517Z,87.40
2017-12-21T01:09:31.116Z,87.50
2017-12-21T01:11:58.710Z,87.50
2017-12-21T01:14:26.349Z,87.60
2017-12-21T01:16:53.909Z,87.50
2017-12-21T01:19:21.499Z,88.10
2017-12-21T01:21:49.130Z,88.60
2017-12-21T01:24:16.760Z,88.50
2017-12-21T01:26:44.346Z,89.10
2017-12-21T01:29:11.914Z,89.30
2017-12-21T01:31:39.499Z,88.40
2017-12-21T01:34:07.140Z,89.10
2017-12-21T01:36:34.808Z,89.70
2017-12-21T01:39:03.314Z,88.90
2017-12-21T01:41:31.653Z,90.00
2017-12-21T01:44:00.069Z,90.00
2017-12-21T01:46:27.663Z,89.20
2017-12-21T01:48:56.035Z,90.30
2017-12-21T01:51:23.670Z,90.30
2017-12-21T01:53:51.289Z,90.30
2017-12-21T01:56:18.871Z,90.00
2017-12-21T01:58:46.660Z,89.60
2017-12-21T02:01:14.248Z,90.00
2017-12-21T02:03:41.879Z,90.00
2017-12-21T02:06:09.465Z,90.40
2017-12-21T02:08:37.082Z,90.00
2017-12-21T02:11:04.721Z,90.40
2017-12-21T02:13:32.323Z,90.20
2017-12-21T02:15:59.881Z,89.90
2017-12-21T02:18:28.361Z,90.10
2017-12-21T02:20:55.940Z,89.80
2017-12-21T02:23:24.337Z,90.00
2017-12-21T02:25:51.921Z,90.10
2017-12-21T02:28:19.562Z,90.00
2017-12-21T02:30:47.254Z,90.50
2017-12-21T02:33:14.828Z,90.10
2017-12-21T02:35:42.409Z,89.30
2017-12-21T02:38:10.082Z,90.10
2017-12-21T02:40:38.362Z,90.10
2017-12-21T02:43:06.776Z,90.00
2017-12-21T02:45:34.336Z,90.00
2017-12-21T02:48:01.935Z,89.30
2017-12-21T02:50:29.662Z,89.00
2017-12-21T02:52:57.305Z,89.70
2017-12-21T02:55:24.865Z,90.20
2017-12-21T02:57:52.469Z,90.10
2017-12-21T03:00:20.242Z,89.70
2017-12-21T03:02:47.841Z,90.40
2017-12-21T03:05:15.528Z,90.40
2017-12-21T03:07:43.207Z,90.40
2017-12-21T03:10:10.848Z,90.00
2017-12-21T03:12:38.422Z,90.20
2017-12-21T03:15:06.080Z,89.80
2017-12-21T03:17:33.636Z,90.20
2017-12-21T03:20:01.209Z,90.20
2017-12-21T03:22:28.786Z,90.10
2017-12-21T03:24:56.350Z,90.30
2017-12-21T03:27:23.966Z,90.20
2017-12-21T03:29:51.702Z,90.30
2017-12-21T03:32:19.328Z,90.50
2017-12-21T03:34:46.940Z,90.50
2017-12-21T03:37:14.520Z,90.40
2017-12-21T03:39:42.157Z,90.60
2017-12-21T03:42:10.630Z,90.60
2017-12-21T03:44:38.373Z,90.60
2017-12-21T03:47:05.996Z,90.00
2017-12-21T03:49:33.625Z,89.80
2017-12-21T03:52:02.036Z,89.40
2017-12-21T03:54:29.621Z,89.40
2017-12-21T03:56:57.238Z,89.00
2017-12-21T03:59:24.829Z,88.70
2017-12-21T04:01:52.416Z,89.20
2017-12-21T04:04:20.070Z,89.70
2017-12-21T04:06:47.673Z,89.20
2017-12-21T04:09:15.261Z,90.00
2017-12-21T04:11:42.839Z,90.30
2017-12-21T04:14:10.449Z,90.40
2017-12-21T04:16:38.613Z,90.30
2017-12-21T04:19:06.296Z,90.40
2017-12-21T04:21:34.022Z,90.40
2017-12-21T04:24:02.393Z,90.70
2017-12-21T04:26:30.024Z,90.70
2017-12-21T04:28:57.609Z,90.90
2017-12-21T04:31:25.796Z,90.90
2017-12-21T04:33:53.396Z,90.80
2017-12-21T04:36:20.955Z,90.70
2017-12-21T04:38:48.606Z,91.10
2017-12-21T04:41:17.003Z,91.20
2017-12-21T04:43:44.599Z,91.20
2017-12-21T04:46:12.182Z,91.30
2017-12-21T04:48:39.792Z,91.30
2017-12-21T04:51:07.434Z,91.60
2017-12-21T04:53:35.816Z,91.50
2017-12-21T04:56:03.402Z,91.50
2017-12-21T04:58:31.040Z,91.60
2017-12-21T05:00:58.659Z,91.40
2017-12-21T05:03:26.226Z,91.60
2017-12-21T05:05:54.655Z,91.70
2017-12-21T05:08:22.298Z,91.70
2017-12-21T05:10:50.708Z,91.90
2017-12-21T05:13:18.358Z,91.90
2017-12-21T05:15:45.969Z,92.00
2017-12-21T05:18:13.574Z,92.20
2017-12-21T05:20:41.194Z,92.00
2017-12-21T05:23:10.283Z,92.00
2017-12-21T05:25:38.550Z,92.00
2017-12-21T05:28:06.121Z,91.70
2017-12-21T05:30:35.334Z,91.70
2017-12-21T05:33:03.217Z,91.70
2017-12-21T05:35:30.827Z,92.40
2017-12-21T05:37:58.395Z,91.90
2017-12-21T05:40:26.356Z,92.00
2017-12-21T05:42:53.967Z,91.90
2017-12-21T05:45:21.575Z,91.80
2017-12-21T05:47:49.187Z,91.60
2017-12-21T05:50:16.889Z,91.30
2017-12-21T05:52:45.049Z,90.90
2017-12-21T05:55:13.054Z,90.90
2017-12-21T05:57:40.906Z,91.40
2017-12-21T06:00:08.525Z,91.20
2017-12-21T06:02:37.013Z,91.00
2017-12-21T06:05:04.572Z,91.00
2017-12-21T06:07:32.759Z,91.00
2017-12-21T06:10:00.397Z,90.80
2017-12-21T06:12:28.820Z,90.80
2017-12-21T06:14:56.462Z,90.80
2017-12-21T06:17:25.458Z,90.80
2017-12-21T06:19:53.063Z,90.80
2017-12-21T06:22:21.545Z,90.60
2017-12-21T06:24:49.163Z,90.60
2017-12-21T06:27:16.799Z,90.70
2017-12-21T06:29:45.485Z,90.80
2017-12-21T06:32:13.972Z,90.50
2017-12-21T06:34:41.615Z,90.50
2017-12-21T06:37:09.315Z,91.10
2017-12-21T06:39:36.911Z,91.10
2017-12-21T06:42:04.517Z,90.80
2017-12-21T06:44:32.173Z,90.70
2017-12-21T06:47:00.282Z,90.80
2017-12-21T06:49:27.910Z,90.60
2017-12-21T06:51:55.565Z,90.60
2017-12-21T06:54:23.129Z,90.60
2017-12-21T06:56:51.630Z,90.60
2017-12-21T06:59:19.692Z,90.60
2017-12-21T07:01:47.404Z,90.50
2017-12-21T07:04:14.990Z,90.80
2017-12-21T07:06:42.585Z,90.30
2017-12-21T07:09:10.202Z,90.60
2017-12-21T07:11:37.820Z,90.60
2017-12-21T07:14:05.805Z,90.50
2017-12-21T07:16:33.469Z,90.60
2017-12-21T07:19:02.145Z,90.30
2017-12-21T07:21:29.751Z,90.10
2017-12-21T07:23:57.516Z,90.10
2017-12-21T07:26:25.124Z,90.10
2017-12-21T07:28:52.715Z,90.10
2017-12-21T07:31:20.368Z,90.10
2017-12-21T07:33:47.958Z,90.50
2017-12-21T07:36:17.212Z,90.80
2017-12-21T07:38:44.840Z,90.90
2017-12-21T07:41:13.156Z,90.70
2017-12-21T07:43:40.727Z,91.40
2017-12-21T07:46:08.299Z,91.50
2017-12-21T07:48:37.895Z,91.30
2017-12-21T07:51:05.497Z,91.30
2017-12-21T07:53:33.145Z,91.30
2017-12-21T07:56:00.741Z,91.50
2017-12-21T07:58:28.433Z,91.40
2017-12-21T08:00:56.026Z,91.60
2017-12-21T08:03:23.665Z,91.70
2017-12-21T08:05:51.658Z,91.50
2017-12-21T08:08:19.538Z,91.40
2017-12-21T08:10:47.107Z,91.10
2017-12-21T08:13:14.722Z,91.20
2017-12-21T08:15:42.333Z,91.00
2017-12-21T08:18:10.618Z,91.10
2017-12-21T08:20:38.308Z,91.10
2017-12-21T08:23:05.940Z,91.20
2017-12-21T08:25:33.545Z,91.00
2017-12-21T08:28:01.552Z,91.10
2017-12-21T08:30:29.922Z,91.40
2017-12-21T08:32:57.527Z,91.40
2017-12-21T08:35:25.755Z,91.50
2017-12-21T08:37:53.512Z,91.10
2017-12-21T08:40:21.302Z,91.40
2017-12-21T08:42:48.911Z,91.20
2017-12-21T08:45:16.607Z,91.20
2017-12-21T08:47:44.265Z,91.20
2017-12-21T08:50:11.866Z,91.00
2017-12-21T08:52:39.631Z,90.80
2017-12-21T08:55:08.137Z,90.50
2017-12-21T08:57:36.472Z,90.50
2017-12-21T09:00:04.180Z,90.40
2017-12-21T09:02:32.115Z,90.10
2017-12-21T09:04:59.763Z,90.00
2017-12-21T09:07:27.370Z,90.10
2017-12-21T09:09:54.984Z,90.00
2017-12-21T09:12:22.573Z,89.50
2017-12-21T09:14:50.339Z,88.80
2017-12-21T09:17:18.004Z,88.60
2017-12-21T09:19:45.592Z,88.20
2017-12-21T09:22:13.222Z,87.90
2017-12-21T09:24:40.849Z,88.40
2017-12-21T09:27:08.451Z,88.20
2017-12-21T09:29:36.023Z,87.80
2017-12-21T09:32:03.709Z,87.60
2017-12-21T09:34:31.298Z,87.20
2017-12-21T09:36:59.653Z,87.50
2017-12-21T09:39:27.302Z,86.70
2017-12-21T09:41:55.727Z,86.30
2017-12-21T09:44:24.109Z,86.10
2017-12-21T09:46:51.698Z,86.00
2017-12-21T09:49:19.328Z,85.90
2017-12-21T09:51:46.987Z,85.40
2017-12-21T09:54:14.613Z,85.40
2017-12-21T09:56:42.249Z,85.40
2017-12-21T09:59:09.868Z,85.10
2017-12-21T10:01:37.425Z,84.70
2017-12-21T10:04:06.871Z,83.70
2017-12-21T10:06:34.507Z,84.20
2017-12-21T10:09:02.854Z,82.50
2017-12-21T10:11:30.440Z,82.50
2017-12-21T10:13:58.822Z,81.50
2017-12-21T10:16:27.542Z,81.50
2017-12-21T10:18:55.930Z,81.20
2017-12-21T10:21:24.332Z,80.50
2017-12-21T10:23:51.920Z,79.90
2017-12-21T10:26:20.295Z,79.50
2017-12-21T10:28:47.937Z,79.30
2017-12-21T10:31:15.548Z,79.20
2017-12-21T10:33:43.412Z,79.60
2017-12-21T10:36:11.163Z,79.30
2017-12-21T10:38:39.702Z,78.90
2017-12-21T10:41:07.487Z,78.80
2017-12-21T10:43:35.112Z,78.00
2017-12-21T10:46:02.693Z,78.60
2017-12-21T10:48:31.357Z,78.50
2017-12-21T10:50:58.916Z,78.40
2017-12-21T10:53:26.632Z,78.30
2017-12-21T10:55:55.076Z,78.40
2017-12-21T10:58:22.641Z,78.40
2017-12-21T11:00:50.250Z,78.20
2017-12-21T11:03:17.810Z,78.10
2017-12-21T11:05:45.684Z,77.50
2017-12-21T11:08:13.292Z,77.80
2017-12-21T11:10:40.869Z,77.60
2017-12-21T11:13:08.509Z,78.10
2017-12-21T11:15:36.062Z,77.20
2017-12-21T11:18:03.770Z,77.20
2017-12-21T11:20:31.432Z,77.50
2017-12-21T11:22:59.063Z,77.40
2017-12-21T11:25:26.694Z,77.30
2017-12-21T11:27:54.273Z,76.90
2017-12-21T11:30:22.036Z,76.70
2017-12-21T11:32:49.690Z,76.70
2017-12-21T11:35:17.514Z,76.70
2017-12-21T11:37:45.948Z,76.70
2017-12-21T11:40:13.530Z,76.70
2017-12-21T11:42:41.762Z,77.40
2017-12-21T11:45:09.468Z,77.50
2017-12-21T11:47:37.107Z,77.60
2017-12-21T11:50:05.086Z,77.70
2017-12-21T11:52:33.488Z,77.30
2017-12-21T11:55:01.239Z,77.30
2017-12-21T11:57:28.934Z,77.40
2017-12-21T11:59:56.762Z,77.80
2017-12-21T12:02:24.365Z,78.10
2017-12-21T12:04:52.255Z,78.40
2017-12-21T12:07:20.025Z,78.30
2017-12-21T12:09:47.660Z,78.60
2017-12-21T12:12:15.266Z,78.70
2017-12-21T12:14:43.698Z,78.40
2017-12-21T12:17:11.594Z,78.40
2017-12-21T12:19:39.207Z,78.50
2017-12-21T12:22:06.844Z,78.20
2017-12-21T12:24:34.578Z,78.30
2017-12-21T12:27:02.242Z,78.40
2017-12-21T12:29:29.903Z,78.30
2017-12-21T12:31:57.500Z,78.80
2017-12-21T12:34:25.167Z,78.20
2017-12-21T12:36:52.780Z,78.30
2017-12-21T12:39:20.361Z,78.00
2017-12-21T12:41:47.921Z,78.20
2017-12-21T12:44:15.596Z,78.10
2017-12-21T12:46:43.202Z,78.10
2017-12-21T12:49:10.800Z,77.80
2017-12-21T12:51:38.393Z,78.00
2017-12-21T12:54:06.008Z,78.00
2017-12-21T12:56:33.582Z,77.80
2017-12-21T12:59:01.154Z,77.90
2017-12-21T13:01:28.747Z,77.80
2017-12-21T13:03:56.494Z,78.00
2017-12-21T13:06:24.198Z,77.80
2017-12-21T13:08:51.835Z,77.60
2017-12-21T13:11:20.392Z,77.70
2017-12-21T13:13:48.152Z,77.70
2017-12-21T13:16:15.751Z,77.70
2017-12-21T13:18:43.335Z,78.30
2017-12-21T13:21:10.920Z,79.70
2017-12-21T13:23:38.534Z,79.30
2017-12-21T13:26:06.874Z,79.60
2017-12-21T13:28:34.447Z,79.60
2017-12-21T13:31:02.096Z,79.70
2017-12-21T13:33:29.744Z,79.20
2017-12-21T13:35:58.022Z,79.20
2017-12-21T13:38:25.781Z,79.50
2017-12-21T13:40:53.424Z,79.90
2017-12-21T13:43:21.036Z,80.20
2017-12-21T13:45:48.844Z,80.00
2017-12-21T13:48:16.464Z,79.90
2017-12-21T13:50:44.099Z,79.80
2017-12-21T13:53:11.697Z,79.80
2017-12-21T13:55:40.028Z,80.00
2017-12-21T13:58:07.665Z,80.00
2017-12-21T14:00:35.250Z,80.30
2017-12-21T14:03:02.843Z,80.10
2017-12-21T14:05:30.451Z,80.60
2017-12-21T14:07:58.447Z,80.90
2017-12-21T14:10:26.085Z,81.10
2017-12-21T14:12:54.453Z,81.50
2017-12-21T14:15:22.080Z,81.70
2017-12-21T14:17:49.676Z,81.70
2017-12-21T14:20:17.256Z,81.70
2017-12-21T14:22:44.860Z,81.60
2017-12-21T14:25:13.096Z,81.30
2017-12-21T14:27:41.994Z,81.90
2017-12-21T14:30:09.587Z,81.90
2017-12-21T14:32:37.276Z,81.30
2017-12-21T14:35:05.667Z,81.10
2017-12-21T14:37:34.493Z,81.10
2017-12-21T14:40:03.062Z,80.50
2017-12-21T14:42:30.669Z,80.50
2017-12-21T14:44:58.226Z,80.60
2017-12-21T14:47:25.844Z,80.70
2017-12-21T14:49:53.463Z,80.70
2017-12-21T14:52:21.999Z,80.60
2017-12-21T14:54:49.585Z,80.50
2017-12-21T14:57:17.193Z,80.60
2017-12-21T14:59:45.291Z,80.60
2017-12-21T15:02:13.029Z,80.90
2017-12-21T15:04:40.610Z,81.40
2017-12-21T15:07:08.485Z,81.50
2017-12-21T15:09:36.377Z,81.20
2017-12-21T15:12:04.002Z,81.90
2017-12-21T15:14:32.037Z,82.20
2017-12-21T15:17:00.424Z,82.50
2017-12-21T15:19:28.008Z,82.50
2017-12-21T15:21:55.579Z,82.70
2017-12-21T15:24:23.677Z,83.00
2017-12-21T15:26:51.303Z,82.80
2017-12-21T15:29:18.895Z,82.60
2017-12-21T15:31:46.479Z,82.30
2017-12-21T15:34:15.857Z,82.30
2017-12-21T15:36:43.430Z,82.20
2017-12-21T15:39:11.872Z,82.10
2017-12-21T15:41:39.571Z,82.30
2017-12-21T15:44:07.144Z,82.30
2017-12-21T15:46:34.791Z,82.20
2017-12-21T15:49:03.369Z,82.30
2017-12-21T15:51:31.573Z,82.30
2017-12-21T15:54:00.031Z,82.70
2017-12-21T15:56:27.675Z,82.70
2017-12-21T15:58:55.526Z,83.60
2017-12-21T16:01:23.143Z,82.70
2017-12-21T16:03:50.863Z,82.80
2017-12-21T16:06:18.494Z,82.20
2017-12-21T16:08:46.092Z,82.80
2017-12-21T16:11:13.699Z,82.10
2017-12-21T16:13:42.037Z,81.80
2017-12-21T16:16:09.681Z,81.80
2017-12-21T16:18:37.787Z,82.00
2017-12-21T16:21:06.208Z,82.30
2017-12-21T16:23:33.893Z,82.20
2017-12-21T16:26:01.511Z,81.60
2017-12-21T16:28:29.996Z,81.50
2017-12-21T16:30:58.368Z,81.50
2017-12-21T16:33:26.730Z,81.50
2017-12-21T16:35:54.396Z,81.50
2017-12-21T16:38:22.017Z,81.50
2017-12-21T16:40:49.733Z,81.90
2017-12-21T16:43:17.698Z,81.40
2017-12-21T16:45:45.349Z,81.40
2017-12-21T16:48:12.939Z,81.20
2017-12-21T16:50:41.340Z,81.50
2017-12-21T16:53:09.181Z,81.50
2017-12-21T16:55:36.929Z,81.20
2017-12-21T16:58:05.296Z,80.60
2017-12-21T17:00:32.982Z,80.60
2017-12-21T17:03:00.635Z,80.60
2017-12-21T17:05:28.250Z,80.60
2017-12-21T17:07:55.882Z,80.10
2017-12-21T17:10:24.129Z,79.40
2017-12-21T17:12:51.771Z,79.00
2017-12-21T17:15:19.350Z,79.20
2017-12-21T17:17:47.050Z,79.10
2017-12-21T17:20:14.622Z,79.00
2017-12-21T17:22:42.268Z,79.30
2017-12-21T17:25:10.053Z,79.00
2017-12-21T17:27:37.662Z,79.60
2017-12-21T17:30:05.270Z,79.10
2017-12-21T17:32:32.866Z,79.40
2017-12-21T17:35:00.430Z,79.00
2017-12-21T17:37:28.910Z,78.00
2017-12-21T17:39:56.464Z,77.80
2017-12-21T17:42:24.143Z,77.80
2017-12-21T17:44:52.732Z,77.80
2017-12-21T17:47:21.200Z,77.80
2017-12-21T17:49:49.690Z,77.80
2017-12-21T17:52:17.301Z,78.70
2017-12-21T17:54:44.869Z,77.50
2017-12-21T17:57:12.532Z,77.70
2017-12-21T17:59:40.117Z,77.40
2017-12-21T18:02:07.688Z,76.80
2017-12-21T18:04:35.246Z,77.00
2017-12-21T18:07:02.863Z,76.70
2017-12-21T18:09:30.502Z,76.60
2017-12-21T18:11:59.004Z,76.50
2017-12-21T18:14:26.645Z,77.30
2017-12-21T18:16:54.535Z,76.80
2017-12-21T18:19:22.170Z,78.10
2017-12-21T18:21:49.789Z,76.60
2017-12-21T18:24:18.027Z,77.30
2017-12-21T18:26:45.691Z,78.30
2017-12-21T18:29:13.498Z,76.60
2017-12-21T18:31:41.259Z,76.40
2017-12-21T18:34:08.834Z,76.50
2017-12-21T18:36:36.487Z,76.50
2017-12-21T18:39:04.148Z,76.20
2017-12-21T18:41:31.716Z,76.20
2017-12-21T18:43:59.430Z,76.90
2017-12-21T18:46:28.008Z,77.00
2017-12-21T18:48:55.603Z,77.00
2017-12-21T18:51:23.167Z,77.00
2017-12-21T18:53:51.036Z,77.10
2017-12-21T18:56:18.802Z,77.30
2017-12-21T18:58:46.448Z,77.30
2017-12-21T19:01:14.136Z,77.70
2017-12-21T19:03:42.547Z,78.00
2017-12-21T19:06:10.176Z,78.00
2017-12-21T19:08:37.915Z,78.60
2017-12-21T19:11:05.479Z,78.90
2017-12-21T19:13:33.074Z,78.80
2017-12-21T19:16:00.791Z,79.10
2017-12-21T19:18:28.387Z,79.80
2017-12-21T19:20:55.990Z,79.30
2017-12-21T19:23:23.597Z,79.50
2017-12-21T19:25:51.263Z,79.30
2017-12-21T19:28:18.870Z,78.80
2017-12-21T19:30:46.465Z,78.60
2017-12-21T19:33:14.161Z,79.00
2017-12-21T19:35:41.794Z,78.40
2017-12-21T19:38:09.418Z,78.30
2017-12-21T19:40:37.599Z,77.90
2017-12-21T19:43:05.210Z,78.70
2017-12-21T19:45:33.665Z,78.10
2017-12-21T19:48:01.277Z,77.80
2017-12-21T19:50:29.731Z,77.60
2017-12-21T19:52:57.402Z,77.60
2017-12-21T19:55:25.074Z,77.40
2017-12-21T19:57:53.419Z,77.90
2017-12-21T20:00:21.062Z,78.60
2017-12-21T20:02:49.170Z,78.80
2017-12-21T20:05:16.833Z,79.30
2017-12-21T20:07:44.737Z,79.90
2017-12-21T20:10:13.547Z,80.60
2017-12-21T20:12:41.210Z,80.60
2017-12-21T20:15:08.860Z,80.50
2017-12-21T20:17:36.445Z,80.90
2017-12-21T20:20:04.113Z,80.80
2017-12-21T20:22:31.723Z,80.60
2017-12-21T20:24:59.362Z,80.20
2017-12-21T20:27:27.027Z,80.60
2017-12-21T20:29:54.709Z,79.90
2017-12-21T20:32:22.307Z,79.60
2017-12-21T20:34:50.775Z,79.40
2017-12-21T20:37:18.375Z,79.20
2017-12-21T20:39:46.243Z,79.20
2017-12-21T20:42:13.820Z,79.80
2017-12-21T20:44:42.367Z,79.00
2017-12-21T20:47:10.017Z,78.90
2017-12-21T20:49:38.739Z,78.90
2017-12-21T20:52:06.331Z,78.90
2017-12-21T20:54:34.696Z,78.30
2017-12-21T20:57:02.271Z,78.30
2017-12-21T20:59:30.812Z,78.50
2017-12-21T21:01:58.397Z,78.30
2017-12-21T21:04:28.079Z,78.60
2017-12-21T21:06:55.691Z,78.60
2017-12-21T21:09:24.311Z,79.00
2017-12-21T21:11:51.964Z,78.90
2017-12-21T21:14:19.591Z,79.10
2017-12-21T21:16:47.682Z,79.10
2017-12-21T21:19:15.421Z,79.00
2017-12-21T21:21:43.139Z,78.70
2017-12-21T21:24:10.946Z,79.00
2017-12-21T21:26:38.541Z,78.90
2017-12-21T21:29:06.167Z,78.60
2017-12-21T21:31:33.816Z,78.50
2017-12-21T21:34:01.447Z,79.00
2017-12-21T21:36:29.110Z,78.90
2017-12-21T21:38:56.715Z,79.00
2017-12-21T21:41:25.109Z,78.70
2017-12-21T21:43:53.473Z,79.10
2017-12-21T21:46:21.135Z,79.10
2017-12-21T21:48:48.722Z,79.00
2017-12-21T21:51:16.287Z,79.50
2017-12-21T21:53:43.871Z,79.30
2017-12-21T21:56:11.487Z,79.90
2017-12-21T21:58:39.267Z,79.00
2017-12-21T22:01:07.066Z,79.20
2017-12-21T22:03:34.699Z,79.30
2017-12-21T22:06:03.116Z,79.60
2017-12-21T22:08:30.729Z,79.50
2017-12-21T22:10:58.299Z,79.40
2017-12-21T22:13:26.298Z,79.20
2017-12-21T22:15:53.928Z,79.30
2017-12-21T22:18:21.487Z,79.80
2017-12-21T22:20:49.320Z,79.10
2017-12-21T22:23:17.495Z,79.10
2017-12-21T22:25:45.089Z,79.20
2017-12-21T22:28:12.658Z,79.20
2017-12-21T22:30:40.266Z,79.40
2017-12-21T22:33:07.866Z,79.30
2017-12-21T22:35:35.632Z,79.20
2017-12-21T22:38:03.467Z,79.10
2017-12-21T22:40:31.177Z,79.20
2017-12-21T22:42:58.796Z,79.40
2017-12-21T22:45:26.434Z,78.90
2017-12-21T22:47:54.011Z,79.30
2017-12-21T22:50:21.911Z,79.10
2017-12-21T22:52:49.545Z,80.30
2017-12-21T22:55:17.143Z,80.10
2017-12-21T22:57:44.724Z,79.60
2017-12-21T23:00:12.329Z,79.90
2017-12-21T23:02:39.907Z,80.30
2017-12-21T23:05:08.876Z,79.50
2017-12-21T23:07:36.536Z,79.60
2017-12-21T23:10:04.137Z,80.00
2017-12-21T23:12:31.803Z,80.00
2017-12-21T23:14:59.377Z,79.40
2017-12-21T23:17:26.979Z,79.70
2017-12-21T23:19:54.670Z,79.50
2017-12-21T23:22:23.740Z,80.10
2017-12-21T23:24:51.324Z,80.00
2017-12-21T23:27:19.715Z,79.90
2017-12-21T23:29:47.283Z,79.70
2017-12-21T23:32:14.896Z,79.80
2017-12-21T23:34:42.472Z,79.80
2017-12-21T23:37:10.117Z,79.50
2017-12-21T23:39:37.701Z,79.90
2017-12-21T23:42:06.055Z,80.30
2017-12-21T23:44:33.635Z,80.30
2017-12-21T23:47:02.813Z,80.00
2017-12-21T23:49:30.414Z,80.00
2017-12-21T23:51:58.823Z,79.90
2017-12-21T23:54:26.398Z,80.00
2017-12-21T23:56:54.012Z,80.30
2017-12-21T23:59:22.628Z,80.40
